Time;durP1;ratioP1;P1;durP2;ratioP2;P2;SDS_P1;SDS_P2;PMS_P1;PMS_P2;Temp;Humidity;BMP_temperature;BMP_pressure;BME280_temperature;BME280_humidity;BME280_pressure;Samples;Min_cycle;Max_cycle;Signal;HPM_P1;HPM_P2
2023/03/12 00:00:10;;;;;;;8.87;4.93;;;;;;;;;;519455;28;1532;-78
2023/03/12 00:00:25;;;;;;;8.32;4.65;;;;;;;;;;523834;28;1319;-78
2023/03/12 00:00:42;;;;;;;7.33;4.47;;;;;;;;;;523519;28;1550;-78
2023/03/12 00:00:57;;;;;;;7.57;4.47;;;;;;;;;;522396;28;1377;-78
2023/03/12 00:01:19;;;;;;;7.70;4.47;;;;;;;;;;521703;28;1289;-78
2023/03/12 00:01:34;;;;;;;6.90;4.50;;;;;;;;;;519681;28;1761;-78
2023/03/12 00:01:50;;;;;;;7.53;4.70;;;;;;;;;;519646;28;1462;-77
2023/03/12 00:02:05;;;;;;;7.60;4.50;;;;;;;;;;516672;28;1158;-78
2023/03/12 00:02:21;;;;;;;6.97;4.40;;;;;;;;;;518889;28;2502;-79
2023/03/12 00:02:37;;;;;;;6.83;4.43;;;;;;;;;;516598;28;1129;-78
2023/03/12 00:02:52;;;;;;;7.47;4.57;;;;;;;;;;515907;28;1366;-78
2023/03/12 00:03:08;;;;;;;8.32;4.70;;;;;;;;;;516177;28;1391;-77
2023/03/12 00:03:23;;;;;;;8.43;4.65;;;;;;;;;;519187;28;1455;-78
2023/03/12 00:03:39;;;;;;;7.33;4.70;;;;;;;;;;519385;28;1398;-77
2023/03/12 00:03:54;;;;;;;8.00;4.70;;;;;;;;;;519671;28;1058;-77
2023/03/12 00:04:10;;;;;;;8.77;4.70;;;;;;;;;;519483;28;1120;-78
2023/03/12 00:04:25;;;;;;;6.80;4.60;;;;;;;;;;518929;28;1298;-78
2023/03/12 00:04:41;;;;;;;6.57;4.30;;;;;;;;;;517647;28;1397;-78
2023/03/12 00:04:56;;;;;;;7.55;4.50;;;;;;;;;;518026;28;2044;-78
2023/03/12 00:05:12;;;;;;;7.17;4.40;;;;;;;;;;520885;28;1439;-78
2023/03/12 00:05:27;;;;;;;6.75;4.35;;;;;;;;;;519634;28;1427;-78
2023/03/12 00:05:44;;;;;;;7.33;4.70;;;;;;;;;;517605;28;1185;-77
2023/03/12 00:06:02;;;;;;;8.00;4.40;;;;;;;;;;516946;28;1406;-78
2023/03/12 00:06:19;;;;;;;8.07;4.32;;;;;;;;;;519938;28;1444;-78
2023/03/12 00:06:35;;;;;;;7.40;4.50;;;;;;;;;;516349;28;1457;-78
2023/03/12 00:06:51;;;;;;;7.50;4.53;;;;;;;;;;517650;28;1333;-78
2023/03/12 00:07:07;;;;;;;8.85;4.80;;;;;;;;;;518243;28;1293;-78
2023/03/12 00:07:23;;;;;;;8.43;4.80;;;;;;;;;;516795;28;1321;-78
2023/03/12 00:07:38;;;;;;;7.97;4.60;;;;;;;;;;520156;28;1423;-78
2023/03/12 00:07:58;;;;;;;7.57;4.50;;;;;;;;;;520572;28;1166;-78
2023/03/12 00:08:13;;;;;;;6.93;4.43;;;;;;;;;;521900;28;1404;-78
2023/03/12 00:08:29;;;;;;;6.88;4.40;;;;;;;;;;523168;28;1284;-77
2023/03/12 00:08:44;;;;;;;7.23;4.37;;;;;;;;;;522017;28;1375;-77
2023/03/12 00:09:00;;;;;;;8.15;4.60;;;;;;;;;;518202;28;1403;-77
2023/03/12 00:09:16;;;;;;;7.05;4.70;;;;;;;;;;519393;28;1443;-78
2023/03/12 00:09:35;;;;;;;7.10;4.50;;;;;;;;;;520118;28;1738;-77
2023/03/12 00:09:50;;;;;;;7.82;4.43;;;;;;;;;;517668;28;1310;-78
2023/03/12 00:10:07;;;;;;;7.83;4.57;;;;;;;;;;518818;28;1562;-78
2023/03/12 00:10:22;;;;;;;6.85;4.63;;;;;;;;;;518337;28;1540;-78
2023/03/12 00:10:39;;;;;;;7.78;4.90;;;;;;;;;;515522;28;1360;-78
2023/03/12 00:10:54;;;;;;;8.57;4.78;;;;;;;;;;519558;28;1374;-77
2023/03/12 00:11:16;;;;;;;7.47;4.53;;;;;;;;;;517136;28;2789;-78
2023/03/12 00:11:31;;;;;;;7.57;4.57;;;;;;;;;;518854;28;1437;-78
2023/03/12 00:11:46;;;;;;;7.05;4.50;;;;;;;;;;520179;28;1451;-78
2023/03/12 00:12:02;;;;;;;7.93;4.70;;;;;;;;;;519254;28;1367;-78
2023/03/12 00:12:17;;;;;;;7.95;4.70;;;;;;;;;;520502;28;1503;-77
2023/03/12 00:12:33;;;;;;;7.20;4.60;;;;;;;;;;519275;28;1314;-78
2023/03/12 00:12:48;;;;;;;7.28;4.55;;;;;;;;;;520071;28;1717;-78
2023/03/12 00:13:04;;;;;;;7.53;4.70;;;;;;;;;;519491;28;1266;-78
2023/03/12 00:13:19;;;;;;;7.43;4.60;;;;;;;;;;517378;28;1167;-78
2023/03/12 00:13:35;;;;;;;6.85;4.45;;;;;;;;;;517963;28;1368;-78
2023/03/12 00:13:52;;;;;;;7.13;4.50;;;;;;;;;;520330;28;1156;-78
2023/03/12 00:14:07;;;;;;;8.00;4.38;;;;;;;;;;517056;28;1382;-78
2023/03/12 00:14:22;;;;;;;8.10;4.40;;;;;;;;;;518390;28;1794;-78
2023/03/12 00:14:38;;;;;;;6.73;4.23;;;;;;;;;;517905;28;1283;-77
2023/03/12 00:14:53;;;;;;;7.28;4.25;;;;;;;;;;518494;28;1374;-78
2023/03/12 00:15:09;;;;;;;8.17;4.53;;;;;;;;;;517859;28;1348;-77
2023/03/12 00:15:24;;;;;;;8.55;4.70;;;;;;;;;;520012;28;1602;-78
2023/03/12 00:15:40;;;;;;;7.37;4.47;;;;;;;;;;519861;28;1313;-78
2023/03/12 00:15:55;;;;;;;6.60;4.40;;;;;;;;;;516913;28;1727;-75
2023/03/12 00:16:13;;;;;;;6.90;4.50;;;;;;;;;;517262;28;1347;-75
2023/03/12 00:16:29;;;;;;;8.00;4.40;;;;;;;;;;514012;28;1401;-75
2023/03/12 00:16:44;;;;;;;8.13;4.57;;;;;;;;;;517346;28;1366;-73
2023/03/12 00:17:00;;;;;;;7.80;4.80;;;;;;;;;;521370;28;1428;-75
2023/03/12 00:17:15;;;;;;;7.50;4.45;;;;;;;;;;521201;28;1360;-75
2023/03/12 00:17:30;;;;;;;7.83;4.50;;;;;;;;;;521156;28;1741;-75
2023/03/12 00:17:46;;;;;;;7.77;4.40;;;;;;;;;;521343;28;1196;-75
2023/03/12 00:18:01;;;;;;;7.43;4.30;;;;;;;;;;520319;28;1199;-75
2023/03/12 00:18:17;;;;;;;7.18;4.32;;;;;;;;;;518797;28;1191;-75
2023/03/12 00:18:32;;;;;;;6.20;4.40;;;;;;;;;;516823;28;1202;-75
2023/03/12 00:18:49;;;;;;;7.70;4.50;;;;;;;;;;520030;28;1271;-75
2023/03/12 00:19:04;;;;;;;9.07;4.60;;;;;;;;;;519760;28;1411;-76
2023/03/12 00:19:20;;;;;;;8.05;4.60;;;;;;;;;;517513;28;2076;-75
2023/03/12 00:19:35;;;;;;;7.00;4.60;;;;;;;;;;515649;28;1401;-75
2023/03/12 00:19:53;;;;;;;6.63;4.60;;;;;;;;;;516427;28;1256;-76
2023/03/12 00:20:10;;;;;;;6.95;4.57;;;;;;;;;;515941;28;1432;-75
2023/03/12 00:20:26;;;;;;;7.13;4.53;;;;;;;;;;516903;28;1597;-76
2023/03/12 00:20:41;;;;;;;6.70;4.40;;;;;;;;;;518104;28;1396;-78
2023/03/12 00:20:56;;;;;;;6.80;4.37;;;;;;;;;;517758;28;2194;-78
2023/03/12 00:21:12;;;;;;;7.25;4.50;;;;;;;;;;520004;28;1473;-78
2023/03/12 00:21:27;;;;;;;7.13;4.60;;;;;;;;;;519054;28;1389;-78
2023/03/12 00:21:42;;;;;;;7.57;4.47;;;;;;;;;;520137;28;1379;-78
2023/03/12 00:21:58;;;;;;;7.43;4.23;;;;;;;;;;520798;28;1197;-78
2023/03/12 00:22:15;;;;;;;6.90;4.13;;;;;;;;;;518829;28;1203;-78
2023/03/12 00:22:30;;;;;;;7.25;4.30;;;;;;;;;;515994;28;1902;-78
2023/03/12 00:22:46;;;;;;;7.97;4.67;;;;;;;;;;518031;28;1318;-78
2023/03/12 00:23:01;;;;;;;7.72;4.80;;;;;;;;;;517800;28;1393;-78
2023/03/12 00:23:16;;;;;;;7.43;4.67;;;;;;;;;;515753;28;1373;-78
2023/03/12 00:23:32;;;;;;;8.67;4.60;;;;;;;;;;518272;28;1404;-78
2023/03/12 00:23:48;;;;;;;9.48;4.60;;;;;;;;;;518045;28;1400;-78
2023/03/12 00:24:04;;;;;;;9.13;4.63;;;;;;;;;;519093;28;1770;-78
2023/03/12 00:24:19;;;;;;;7.63;4.50;;;;;;;;;;519996;28;1307;-78
2023/03/12 00:24:35;;;;;;;6.80;4.63;;;;;;;;;;520805;28;1314;-78
2023/03/12 00:24:52;;;;;;;8.90;4.70;;;;;;;;;;520094;28;1650;-78
2023/03/12 00:25:12;;;;;;;8.52;4.47;;;;;;;;;;522032;28;1477;-78
2023/03/12 00:25:27;;;;;;;7.47;4.47;;;;;;;;;;521588;28;1465;-78
2023/03/12 00:25:42;;;;;;;8.07;4.57;;;;;;;;;;520238;28;2130;-78
2023/03/12 00:26:02;;;;;;;8.37;4.50;;;;;;;;;;520021;28;1384;-78
2023/03/12 00:26:19;;;;;;;8.00;4.47;;;;;;;;;;520744;28;1434;-78
2023/03/12 00:26:34;;;;;;;8.80;4.70;;;;;;;;;;519444;28;1394;-78
2023/03/12 00:26:50;;;;;;;8.13;4.70;;;;;;;;;;517880;28;1209;-78
2023/03/12 00:27:06;;;;;;;7.88;4.60;;;;;;;;;;518562;28;1730;-78
2023/03/12 00:27:22;;;;;;;8.52;4.78;;;;;;;;;;519612;28;1280;-78
2023/03/12 00:27:38;;;;;;;7.95;4.85;;;;;;;;;;519500;28;1379;-78
2023/03/12 00:27:54;;;;;;;7.47;4.67;;;;;;;;;;520088;28;1388;-78
2023/03/12 00:28:09;;;;;;;7.45;4.47;;;;;;;;;;519573;28;1366;-77
2023/03/12 00:28:24;;;;;;;7.13;4.53;;;;;;;;;;519908;28;1427;-78
2023/03/12 00:28:40;;;;;;;8.13;4.60;;;;;;;;;;519191;28;1399;-78
2023/03/12 00:28:56;;;;;;;8.38;4.70;;;;;;;;;;519093;28;1828;-77
2023/03/12 00:29:11;;;;;;;8.37;4.83;;;;;;;;;;518353;28;1551;-77
2023/03/12 00:29:26;;;;;;;7.90;4.77;;;;;;;;;;519436;28;1500;-78
2023/03/12 00:29:41;;;;;;;6.75;4.43;;;;;;;;;;516749;28;1451;-78
2023/03/12 00:29:57;;;;;;;6.27;4.50;;;;;;;;;;519167;28;1216;-78
2023/03/12 00:30:12;;;;;;;7.07;4.70;;;;;;;;;;518164;28;1387;-78
2023/03/12 00:30:28;;;;;;;8.52;4.70;;;;;;;;;;518981;28;1790;-78
2023/03/12 00:30:43;;;;;;;8.47;4.70;;;;;;;;;;519041;28;1316;-77
2023/03/12 00:30:59;;;;;;;7.18;4.70;;;;;;;;;;520047;28;1399;-78
2023/03/12 00:31:20;;;;;;;7.90;4.60;;;;;;;;;;520167;28;1387;-78
2023/03/12 00:31:35;;;;;;;7.35;4.32;;;;;;;;;;521284;28;1429;-77
2023/03/12 00:31:53;;;;;;;7.93;4.57;;;;;;;;;;520974;28;1406;-78
2023/03/12 00:32:09;;;;;;;7.43;4.55;;;;;;;;;;521008;28;1445;-78
2023/03/12 00:32:24;;;;;;;7.73;4.70;;;;;;;;;;520063;28;1203;-78
2023/03/12 00:32:39;;;;;;;7.80;4.85;;;;;;;;;;521615;28;1129;-78
2023/03/12 00:32:55;;;;;;;8.50;4.80;;;;;;;;;;521450;28;1402;-78
2023/03/12 00:33:11;;;;;;;9.43;4.90;;;;;;;;;;521416;28;1446;-78
2023/03/12 00:33:28;;;;;;;7.85;4.90;;;;;;;;;;522058;28;1452;-78
2023/03/12 00:33:43;;;;;;;7.15;4.82;;;;;;;;;;518804;28;1979;-78
2023/03/12 00:34:01;;;;;;;7.85;4.75;;;;;;;;;;516296;28;1425;-78
2023/03/12 00:34:16;;;;;;;8.27;4.70;;;;;;;;;;519497;28;1385;-78
2023/03/12 00:34:31;;;;;;;8.65;4.55;;;;;;;;;;516917;28;1221;-78
2023/03/12 00:34:54;;;;;;;8.93;4.80;;;;;;;;;;518015;28;1408;-78
2023/03/12 00:35:09;;;;;;;7.68;4.60;;;;;;;;;;520046;28;1796;-77
2023/03/12 00:35:25;;;;;;;6.77;4.50;;;;;;;;;;520497;28;1319;-78
2023/03/12 00:35:40;;;;;;;8.73;4.90;;;;;;;;;;519830;28;1171;-78
2023/03/12 00:35:59;;;;;;;9.40;4.90;;;;;;;;;;519015;28;1383;-79
2023/03/12 00:36:16;;;;;;;9.02;5.10;;;;;;;;;;522805;28;1452;-77
2023/03/12 00:36:32;;;;;;;8.77;5.10;;;;;;;;;;518992;28;1442;-78
2023/03/12 00:36:47;;;;;;;8.60;4.97;;;;;;;;;;519183;28;1353;-78
2023/03/12 00:37:02;;;;;;;8.97;5.10;;;;;;;;;;517945;28;1169;-78
2023/03/12 00:37:18;;;;;;;7.60;4.87;;;;;;;;;;517016;28;1459;-78
2023/03/12 00:37:35;;;;;;;8.38;4.78;;;;;;;;;;517162;28;1359;-78
2023/03/12 00:37:51;;;;;;;8.50;4.78;;;;;;;;;;517034;28;1197;-78
2023/03/12 00:38:06;;;;;;;7.53;4.70;;;;;;;;;;518535;28;1369;-78
2023/03/12 00:38:21;;;;;;;7.80;4.80;;;;;;;;;;522707;28;1223;-78
2023/03/12 00:38:37;;;;;;;7.90;4.90;;;;;;;;;;518097;28;1356;-77
2023/03/12 00:38:53;;;;;;;8.60;4.90;;;;;;;;;;519317;28;1378;-78
2023/03/12 00:39:08;;;;;;;8.63;4.80;;;;;;;;;;520116;28;1574;-77
2023/03/12 00:39:24;;;;;;;8.15;4.80;;;;;;;;;;519601;28;1004;-78
2023/03/12 00:39:39;;;;;;;7.87;4.70;;;;;;;;;;519250;28;1396;-78
2023/03/12 00:39:54;;;;;;;7.27;4.60;;;;;;;;;;519509;28;1195;-78
2023/03/12 00:40:10;;;;;;;7.78;4.57;;;;;;;;;;518838;28;1202;-78
2023/03/12 00:40:26;;;;;;;7.88;4.65;;;;;;;;;;518851;28;1304;-78
2023/03/12 00:40:41;;;;;;;7.30;4.47;;;;;;;;;;517107;28;1506;-78
2023/03/12 00:40:56;;;;;;;6.93;4.60;;;;;;;;;;517637;28;1223;-78
2023/03/12 00:41:12;;;;;;;7.25;4.63;;;;;;;;;;517530;28;1225;-78
2023/03/12 00:41:29;;;;;;;7.23;4.37;;;;;;;;;;515391;28;1188;-78
2023/03/12 00:41:45;;;;;;;7.50;4.43;;;;;;;;;;516885;28;1259;-78
2023/03/12 00:42:00;;;;;;;7.87;4.43;;;;;;;;;;515166;28;1244;-77
2023/03/12 00:42:16;;;;;;;7.75;4.43;;;;;;;;;;517580;28;1298;-77
2023/03/12 00:42:31;;;;;;;8.52;4.60;;;;;;;;;;517643;28;1916;-78
2023/03/12 00:42:47;;;;;;;7.83;4.70;;;;;;;;;;515491;28;1260;-78
2023/03/12 00:43:02;;;;;;;8.00;4.60;;;;;;;;;;515337;28;1203;-77
2023/03/12 00:43:17;;;;;;;8.02;4.35;;;;;;;;;;519189;28;1230;-78
2023/03/12 00:43:33;;;;;;;7.87;4.60;;;;;;;;;;517574;28;1386;-78
2023/03/12 00:43:50;;;;;;;8.60;4.80;;;;;;;;;;515031;28;1192;-78
2023/03/12 00:44:05;;;;;;;7.60;4.53;;;;;;;;;;516990;28;1466;-77
2023/03/12 00:44:20;;;;;;;7.80;4.60;;;;;;;;;;516656;28;1132;-78
2023/03/12 00:44:36;;;;;;;8.50;4.83;;;;;;;;;;519882;28;1352;-78
2023/03/12 00:44:51;;;;;;;7.50;4.80;;;;;;;;;;519341;28;1037;-78
2023/03/12 00:45:07;;;;;;;7.03;4.60;;;;;;;;;;517226;28;1550;-78
2023/03/12 00:45:22;;;;;;;7.17;4.50;;;;;;;;;;518781;28;1191;-78
2023/03/12 00:45:37;;;;;;;6.90;4.38;;;;;;;;;;517456;28;1348;-78
2023/03/12 00:45:53;;;;;;;7.73;4.37;;;;;;;;;;516939;28;1335;-78
2023/03/12 00:46:08;;;;;;;8.53;4.43;;;;;;;;;;518100;28;1212;-77
2023/03/12 00:46:24;;;;;;;7.53;4.68;;;;;;;;;;517862;28;1232;-77
2023/03/12 00:46:39;;;;;;;6.30;4.50;;;;;;;;;;519316;28;1221;-76
2023/03/12 00:46:54;;;;;;;7.60;4.40;;;;;;;;;;519015;28;1668;-76
2023/03/12 00:47:10;;;;;;;8.53;4.40;;;;;;;;;;521321;28;1295;-77
2023/03/12 00:47:25;;;;;;;7.40;4.38;;;;;;;;;;518039;28;1251;-77
2023/03/12 00:47:40;;;;;;;6.57;4.30;;;;;;;;;;519326;28;1393;-77
2023/03/12 00:47:56;;;;;;;6.77;4.27;;;;;;;;;;521825;28;1171;-77
2023/03/12 00:48:11;;;;;;;7.07;4.40;;;;;;;;;;519611;28;1322;-77
2023/03/12 00:48:26;;;;;;;6.23;4.20;;;;;;;;;;516973;28;1179;-77
2023/03/12 00:48:42;;;;;;;6.53;4.30;;;;;;;;;;519199;28;1279;-77
2023/03/12 00:48:58;;;;;;;8.70;4.80;;;;;;;;;;520312;28;1281;-77
2023/03/12 00:49:13;;;;;;;9.23;4.93;;;;;;;;;;519272;28;1252;-77
2023/03/12 00:49:28;;;;;;;8.07;4.63;;;;;;;;;;520530;28;1090;-77
2023/03/12 00:49:44;;;;;;;7.00;4.50;;;;;;;;;;516823;28;1200;-77
2023/03/12 00:49:59;;;;;;;7.70;4.60;;;;;;;;;;519325;28;1461;-77
2023/03/12 00:50:14;;;;;;;8.00;4.70;;;;;;;;;;517404;28;1195;-76
2023/03/12 00:50:30;;;;;;;7.00;4.32;;;;;;;;;;519979;28;1223;-77
2023/03/12 00:50:45;;;;;;;7.07;4.10;;;;;;;;;;520020;28;1345;-77
2023/03/12 00:51:00;;;;;;;7.00;4.40;;;;;;;;;;520342;28;1267;-77
2023/03/12 00:51:16;;;;;;;6.15;4.40;;;;;;;;;;522108;28;1236;-77
2023/03/12 00:51:31;;;;;;;6.50;4.50;;;;;;;;;;520027;28;1322;-77
2023/03/12 00:51:46;;;;;;;7.30;4.50;;;;;;;;;;517034;28;1365;-77
2023/03/12 00:52:02;;;;;;;7.97;4.45;;;;;;;;;;517632;28;1320;-77
2023/03/12 00:52:17;;;;;;;8.77;4.73;;;;;;;;;;516431;28;1235;-77
2023/03/12 00:52:32;;;;;;;8.82;4.70;;;;;;;;;;517751;28;1212;-77
2023/03/12 00:52:48;;;;;;;7.37;4.50;;;;;;;;;;519431;28;1393;-77
2023/03/12 00:53:03;;;;;;;6.20;4.53;;;;;;;;;;519319;28;1126;-77
2023/03/12 00:53:18;;;;;;;8.57;4.65;;;;;;;;;;520161;28;1349;-77
2023/03/12 00:53:34;;;;;;;8.40;4.57;;;;;;;;;;519734;28;1195;-77
2023/03/12 00:53:50;;;;;;;5.55;4.40;;;;;;;;;;520405;28;1445;-77
2023/03/12 00:54:05;;;;;;;5.83;4.30;;;;;;;;;;519776;28;1377;-76
2023/03/12 00:54:21;;;;;;;6.90;4.57;;;;;;;;;;521149;28;1625;-76
2023/03/12 00:54:37;;;;;;;6.45;4.40;;;;;;;;;;519746;28;1074;-77
2023/03/12 00:54:57;;;;;;;5.70;3.97;;;;;;;;;;521363;28;1327;-77
2023/03/12 00:55:12;;;;;;;5.40;3.80;;;;;;;;;;519695;28;1259;-78
2023/03/12 00:55:27;;;;;;;6.07;4.15;;;;;;;;;;519703;28;1291;-77
2023/03/12 00:55:43;;;;;;;6.87;4.40;;;;;;;;;;518346;28;1158;-77
2023/03/12 00:55:58;;;;;;;6.63;4.50;;;;;;;;;;518006;28;1370;-77
2023/03/12 00:56:14;;;;;;;7.33;4.70;;;;;;;;;;519964;28;1147;-76
2023/03/12 00:56:30;;;;;;;9.23;5.10;;;;;;;;;;517974;28;1224;-77
2023/03/12 00:56:46;;;;;;;9.88;5.45;;;;;;;;;;517422;28;1487;-77
2023/03/12 00:57:01;;;;;;;9.13;5.30;;;;;;;;;;519635;28;1349;-78
2023/03/12 00:57:16;;;;;;;8.18;4.90;;;;;;;;;;519604;28;1174;-77
2023/03/12 00:57:32;;;;;;;8.07;4.80;;;;;;;;;;516758;28;1170;-77
2023/03/12 00:57:47;;;;;;;8.02;4.90;;;;;;;;;;518899;28;1386;-77
2023/03/12 00:58:02;;;;;;;7.67;4.80;;;;;;;;;;517538;28;1199;-77
2023/03/12 00:58:18;;;;;;;6.83;4.70;;;;;;;;;;520002;28;1141;-77
2023/03/12 00:58:33;;;;;;;6.72;4.70;;;;;;;;;;520006;28;1306;-77
2023/03/12 00:58:48;;;;;;;7.70;4.63;;;;;;;;;;519914;28;1509;-77
2023/03/12 00:59:04;;;;;;;8.20;4.67;;;;;;;;;;521286;28;1260;-77
2023/03/12 01:00:09;;;;;;;7.95;4.70;;;;;;;;;;521811;28;1329;-77
2023/03/12 01:00:29;;;;;;;8.45;4.88;;;;;;;;;;520945;28;1366;-76
2023/03/12 01:00:56;;;;;;;8.60;4.93;;;;;;;;;;520698;28;1417;-76
2023/03/12 01:01:34;;;;;;;8.35;4.95;;;;;;;;;;520535;28;1273;-77
2023/03/12 01:02:05;;;;;;;9.15;4.97;;;;;;;;;;520660;28;1381;-76
2023/03/12 01:02:20;;;;;;;8.85;5.00;;;;;;;;;;519967;28;1279;-77
2023/03/12 01:02:42;;;;;;;8.48;4.80;;;;;;;;;;521253;28;1911;-77
2023/03/12 01:02:57;;;;;;;7.13;4.75;;;;;;;;;;521107;28;1386;-76
2023/03/12 01:04:03;;;;;;;7.00;4.53;;;;;;;;;;520668;28;1106;-77
2023/03/12 01:04:21;;;;;;;8.70;4.85;;;;;;;;;;514270;28;1135;-77
2023/03/12 01:04:37;;;;;;;8.98;5.13;;;;;;;;;;517799;28;1271;-76
2023/03/12 01:04:52;;;;;;;7.53;4.93;;;;;;;;;;521744;28;1031;-77
2023/03/12 01:05:11;;;;;;;6.55;4.70;;;;;;;;;;518620;28;1160;-77
2023/03/12 01:05:26;;;;;;;7.22;4.70;;;;;;;;;;518287;28;1400;-77
2023/03/12 01:06:03;;;;;;;7.43;4.88;;;;;;;;;;519606;28;1244;-77
2023/03/12 01:06:23;;;;;;;8.00;5.20;;;;;;;;;;521107;28;1112;-76
2023/03/12 01:06:55;;;;;;;7.95;4.90;;;;;;;;;;518705;28;1481;-76
2023/03/12 01:07:10;;;;;;;7.72;4.78;;;;;;;;;;519516;28;1243;-76
2023/03/12 01:07:46;;;;;;;8.80;4.90;;;;;;;;;;519685;28;1344;-76
2023/03/12 01:08:03;;;;;;;7.47;4.78;;;;;;;;;;518684;28;1449;-76
2023/03/12 01:08:19;;;;;;;8.05;5.15;;;;;;;;;;518723;28;1248;-77
2023/03/12 01:08:35;;;;;;;7.38;4.97;;;;;;;;;;518163;28;1415;-76
2023/03/12 01:08:50;;;;;;;8.03;5.00;;;;;;;;;;516964;28;1177;-76
2023/03/12 01:09:07;;;;;;;8.85;5.13;;;;;;;;;;515796;28;1647;-77
2023/03/12 01:09:22;;;;;;;8.10;4.82;;;;;;;;;;516625;28;1513;-77
2023/03/12 01:09:40;;;;;;;7.77;5.00;;;;;;;;;;519311;28;1190;-76
2023/03/12 01:10:02;;;;;;;8.15;5.30;;;;;;;;;;519417;28;1516;-77
2023/03/12 01:10:19;;;;;;;7.90;4.70;;;;;;;;;;519815;28;1277;-75
2023/03/12 01:10:36;;;;;;;8.25;4.70;;;;;;;;;;517021;28;1358;-76
2023/03/12 01:11:14;;;;;;;8.73;4.90;;;;;;;;;;520481;28;1386;-76
2023/03/12 01:11:31;;;;;;;8.40;4.90;;;;;;;;;;515972;28;1345;-76
2023/03/12 01:11:47;;;;;;;7.70;4.65;;;;;;;;;;518349;28;1443;-77
2023/03/12 01:12:05;;;;;;;7.43;4.50;;;;;;;;;;519462;28;1231;-77
2023/03/12 01:12:20;;;;;;;8.10;4.57;;;;;;;;;;518676;28;1279;-76
2023/03/12 01:12:36;;;;;;;8.50;4.80;;;;;;;;;;519993;28;1251;-76
2023/03/12 01:13:02;;;;;;;7.90;4.80;;;;;;;;;;518951;28;1058;-76
2023/03/12 01:13:17;;;;;;;7.63;4.72;;;;;;;;;;518637;28;1264;-77
2023/03/12 01:13:33;;;;;;;8.32;4.90;;;;;;;;;;518806;28;1245;-77
2023/03/12 01:13:48;;;;;;;8.13;4.83;;;;;;;;;;519648;28;1409;-76
2023/03/12 01:14:06;;;;;;;6.60;4.88;;;;;;;;;;519626;28;1106;-77
2023/03/12 01:14:23;;;;;;;7.35;5.00;;;;;;;;;;517717;28;1510;-76
2023/03/12 01:14:38;;;;;;;8.75;5.03;;;;;;;;;;516713;28;1351;-77
2023/03/12 01:15:03;;;;;;;9.13;4.93;;;;;;;;;;517026;28;1321;-77
2023/03/12 01:15:18;;;;;;;7.45;4.88;;;;;;;;;;518045;28;1341;-76
2023/03/12 01:15:37;;;;;;;7.47;4.90;;;;;;;;;;519605;28;1318;-76
2023/03/12 01:15:52;;;;;;;7.05;4.70;;;;;;;;;;519696;28;1276;-76
2023/03/12 01:16:08;;;;;;;7.78;4.72;;;;;;;;;;517850;28;1489;-76
2023/03/12 01:16:28;;;;;;;7.60;4.90;;;;;;;;;;514940;28;1347;-76
2023/03/12 01:16:44;;;;;;;7.90;4.82;;;;;;;;;;518561;28;1354;-76
2023/03/12 01:16:59;;;;;;;8.70;4.70;;;;;;;;;;519117;28;1266;-76
2023/03/12 01:17:14;;;;;;;7.85;4.60;;;;;;;;;;518176;28;1406;-76
2023/03/12 01:17:30;;;;;;;6.63;4.80;;;;;;;;;;521270;28;1279;-76
2023/03/12 01:17:45;;;;;;;7.53;5.00;;;;;;;;;;518686;28;1206;-76
2023/03/12 01:18:01;;;;;;;8.40;4.80;;;;;;;;;;517054;28;1421;-76
2023/03/12 01:18:27;;;;;;;8.13;4.72;;;;;;;;;;518581;28;1342;-77
2023/03/12 01:18:43;;;;;;;7.72;4.53;;;;;;;;;;519210;28;1434;-77
2023/03/12 01:19:00;;;;;;;7.82;4.60;;;;;;;;;;518655;28;1197;-77
2023/03/12 01:19:24;;;;;;;6.45;4.63;;;;;;;;;;521174;28;1269;-77
2023/03/12 01:19:40;;;;;;;6.13;4.38;;;;;;;;;;521298;28;1373;-77
2023/03/12 01:19:58;;;;;;;5.82;4.22;;;;;;;;;;520696;28;1177;-77
2023/03/12 01:20:27;;;;;;;;;;;;;;;;;;;;;
2023/03/12 01:20:42;;;;;;;7.72;4.90;;;;;;;;;;521158;28;1078;-77
2023/03/12 01:21:01;;;;;;;9.27;5.03;;;;;;;;;;521294;28;1346;-77
2023/03/12 01:21:16;;;;;;;8.90;5.00;;;;;;;;;;523172;28;1267;-77
2023/03/12 01:21:32;;;;;;;8.40;4.80;;;;;;;;;;521837;28;1102;-77
2023/03/12 01:21:47;;;;;;;7.50;4.77;;;;;;;;;;521419;28;1203;-76
2023/03/12 01:22:03;;;;;;;9.37;5.10;;;;;;;;;;521228;28;1227;-77
2023/03/12 01:22:26;;;;;;;9.10;5.00;;;;;;;;;;522768;28;1264;-76
2023/03/12 01:23:04;;;;;;;6.97;4.68;;;;;;;;;;520842;28;1350;-77
2023/03/12 01:23:20;;;;;;;7.72;4.70;;;;;;;;;;511462;28;1436;-77
2023/03/12 01:23:36;;;;;;;7.20;4.67;;;;;;;;;;516116;28;1284;-78
2023/03/12 01:23:52;;;;;;;6.72;4.53;;;;;;;;;;519642;28;1235;-78
2023/03/12 01:24:07;;;;;;;6.50;4.57;;;;;;;;;;519442;28;1299;-77
2023/03/12 01:24:33;;;;;;;7.63;4.75;;;;;;;;;;518868;28;1267;-77
2023/03/12 01:25:00;;;;;;;7.90;4.90;;;;;;;;;;520250;28;1386;-77
2023/03/12 01:25:36;;;;;;;7.65;4.80;;;;;;;;;;519671;28;1271;-77
2023/03/12 01:26:00;;;;;;;9.13;5.10;;;;;;;;;;518582;28;1429;-77
2023/03/12 01:26:15;;;;;;;8.23;5.03;;;;;;;;;;521381;28;1430;-78
2023/03/12 01:26:44;;;;;;;7.10;4.80;;;;;;;;;;518671;28;1224;-77
2023/03/12 01:27:01;;;;;;;7.63;4.45;;;;;;;;;;520354;28;1412;-77
2023/03/12 01:27:16;;;;;;;6.95;4.70;;;;;;;;;;521453;28;1515;-78
2023/03/12 01:27:32;;;;;;;7.67;5.03;;;;;;;;;;518612;28;1372;-77
2023/03/12 01:27:48;;;;;;;7.18;5.10;;;;;;;;;;517460;28;1307;-78
2023/03/12 01:28:03;;;;;;;7.93;5.13;;;;;;;;;;518152;28;1329;-77
2023/03/12 01:28:18;;;;;;;8.70;5.07;;;;;;;;;;519481;28;1350;-77
2023/03/12 01:28:40;;;;;;;9.13;5.17;;;;;;;;;;519622;28;1370;-78
2023/03/12 01:28:55;;;;;;;9.73;5.20;;;;;;;;;;519107;28;1338;-78
2023/03/12 01:29:10;;;;;;;9.27;5.22;;;;;;;;;;519619;28;1150;-79
2023/03/12 01:29:56;;;;;;;9.07;5.30;;;;;;;;;;522424;28;1359;-77
2023/03/12 01:30:20;;;;;;;9.57;5.43;;;;;;;;;;519439;28;1411;-78
2023/03/12 01:32:04;;;;;;;9.18;5.68;;;;;;;;;;518639;28;1407;-77
2023/03/12 01:32:19;;;;;;;9.02;5.90;;;;;;;;;;519676;28;1586;-78
2023/03/12 01:32:34;;;;;;;9.50;6.17;;;;;;;;;;523468;28;1231;-78
2023/03/12 01:32:53;;;;;;;8.60;5.87;;;;;;;;;;521370;28;1317;-77
2023/03/12 01:33:08;;;;;;;8.70;5.50;;;;;;;;;;521393;28;1454;-77
2023/03/12 01:33:24;;;;;;;9.20;5.50;;;;;;;;;;517999;28;1296;-77
2023/03/12 01:33:39;;;;;;;8.93;5.37;;;;;;;;;;517578;28;1380;-78
2023/03/12 01:34:03;;;;;;;8.80;5.28;;;;;;;;;;518804;28;1243;-78
2023/03/12 01:34:18;;;;;;;9.25;5.35;;;;;;;;;;520512;28;1466;-78
2023/03/12 01:34:34;;;;;;;8.73;5.10;;;;;;;;;;518707;28;1317;-78
2023/03/12 01:34:59;;;;;;;7.80;5.10;;;;;;;;;;520933;28;1562;-77
2023/03/12 01:35:15;;;;;;;7.57;5.00;;;;;;;;;;519548;28;1536;-78
2023/03/12 01:35:36;;;;;;;8.37;5.33;;;;;;;;;;520762;28;1336;-78
2023/03/12 01:36:16;;;;;;;7.05;5.07;;;;;;;;;;519487;28;999;-77
2023/03/12 01:36:31;;;;;;;7.53;4.75;;;;;;;;;;519247;28;1423;-78
2023/03/12 01:36:58;;;;;;;8.83;5.37;;;;;;;;;;517560;28;1190;-78
2023/03/12 01:37:13;;;;;;;7.75;5.30;;;;;;;;;;518414;28;1337;-78
2023/03/12 01:37:59;;;;;;;;;;;;;;;;;;;;;
2023/03/12 01:38:15;;;;;;;6.47;4.63;;;;;;;;;;520166;28;1106;-78
2023/03/12 01:38:30;;;;;;;7.55;5.10;;;;;;;;;;521663;28;1165;-77
2023/03/12 01:38:46;;;;;;;7.97;5.03;;;;;;;;;;519336;28;1188;-76
2023/03/12 01:39:02;;;;;;;8.30;5.20;;;;;;;;;;518361;28;1405;-76
2023/03/12 01:39:17;;;;;;;8.95;5.53;;;;;;;;;;519890;28;1298;-76
2023/03/12 01:40:16;;;;;;;8.87;5.50;;;;;;;;;;520747;28;1275;-76
2023/03/12 01:40:35;;;;;;;7.20;4.80;;;;;;;;;;510373;28;1285;-76
2023/03/12 01:40:50;;;;;;;6.03;4.40;;;;;;;;;;520782;28;1316;-77
2023/03/12 01:41:08;;;;;;;6.40;4.20;;;;;;;;;;519482;28;1557;-77
2023/03/12 01:41:42;;;;;;;7.20;4.70;;;;;;;;;;517116;28;1518;-76
2023/03/12 01:42:01;;;;;;;7.38;5.07;;;;;;;;;;518853;28;1521;-76
2023/03/12 01:42:16;;;;;;;8.20;5.05;;;;;;;;;;517647;28;1410;-77
2023/03/12 01:42:32;;;;;;;8.33;5.10;;;;;;;;;;516577;28;1930;-77
2023/03/12 01:42:55;;;;;;;8.35;5.10;;;;;;;;;;517865;28;1365;-77
2023/03/12 01:43:37;;;;;;;7.90;5.00;;;;;;;;;;519404;28;1151;-77
2023/03/12 01:44:03;;;;;;;7.40;4.88;;;;;;;;;;518552;28;1410;-76
2023/03/12 01:44:21;;;;;;;6.97;4.97;;;;;;;;;;520983;28;1391;-79
2023/03/12 01:45:01;;;;;;;7.40;4.80;;;;;;;;;;521913;28;1517;-77
2023/03/12 01:46:56;;;;;;;9.27;5.00;;;;;;;;;;516356;28;1404;-77
2023/03/12 01:47:17;;;;;;;7.15;4.78;;;;;;;;;;524461;27;1253;-77
2023/03/12 01:47:35;;;;;;;8.23;4.90;;;;;;;;;;523479;28;1603;-77
2023/03/12 01:48:03;;;;;;;7.97;4.80;;;;;;;;;;521657;28;1149;-78
2023/03/12 01:48:19;;;;;;;7.60;4.93;;;;;;;;;;518626;28;1434;-77
2023/03/12 01:48:52;;;;;;;8.45;5.07;;;;;;;;;;516870;28;1695;-77
2023/03/12 01:49:22;;;;;;;7.53;5.00;;;;;;;;;;519857;28;1377;-78
2023/03/12 01:49:38;;;;;;;8.15;5.13;;;;;;;;;;519927;28;1423;-78
2023/03/12 01:50:06;;;;;;;7.78;4.80;;;;;;;;;;519509;28;1308;-77
2023/03/12 01:50:24;;;;;;;9.65;4.90;;;;;;;;;;522771;28;1275;-78
2023/03/12 01:50:40;;;;;;;8.18;4.90;;;;;;;;;;519739;28;1389;-78
2023/03/12 01:51:02;;;;;;;6.82;4.80;;;;;;;;;;520841;28;1195;-77
2023/03/12 01:52:03;;;;;;;8.52;4.78;;;;;;;;;;518987;28;1491;-77
2023/03/12 01:53:04;;;;;;;6.43;4.72;;;;;;;;;;521423;28;1122;-78
2023/03/12 01:53:21;;;;;;;7.10;4.70;;;;;;;;;;525115;28;1535;-78
2023/03/12 01:54:08;;;;;;;7.68;4.78;;;;;;;;;;521397;28;1390;-78
2023/03/12 01:54:51;;;;;;;6.93;4.50;;;;;;;;;;516409;28;1599;-77
2023/03/12 01:55:18;;;;;;;8.85;4.75;;;;;;;;;;519173;28;1346;-77
2023/03/12 01:55:42;;;;;;;7.93;4.93;;;;;;;;;;520157;28;1326;-78
2023/03/12 01:56:00;;;;;;;8.82;4.93;;;;;;;;;;518619;28;1402;-78
2023/03/12 01:56:44;;;;;;;8.25;4.68;;;;;;;;;;519447;28;1465;-78
2023/03/12 01:57:02;;;;;;;6.93;4.40;;;;;;;;;;519802;28;1253;-78